Saturday, January 31, 2015
08:34 UTC
  |  Log In   |  Register Free
Airport Search:

Lonesome Pine Airport
(KLNP)

Lonesome Pine Airport Diagram
No Airport Diagram Available

FAA data valid effective January 08, 2015 - March 05, 2015 (unless otherwise noted).

 
 
 
 
 
 
 
 
 
 
 
 
 
 

Current Aviation Weather for Lonesome Pine Airport (KLNP)

The most recent METAR observation for KLNP was updated at: 0813
METAR Summary (Translated METAR)
KLNP
310755Z AUTO 00000KT 10SM CLR M07/M11 A3030 RMK AO2
KVJI
310755Z AUTO 23003KT 10SM CLR M04/M11 A3033 RMK AO2 T10431112
(29.9 nm SE from KLNP)
KTRI
310753Z 00000KT 10SM CLR M07/M09 A3037 RMK AO2 SLP287 T10671094
(31.3 nm SE from KLNP)
TAF Summary (Translated TAF)
KTRI
(31.3 nm SE from KLNP)
310523Z 3106/0106 00000KT P6SM SCT250 FM312100 25004KT P6SM BKN250
  Airport Weather Conditions for KLNP

 Current Weather at LNP
18° F
Fair
Southwest winds at 3.5 mph
LNP NOAA Radar

Pressure: 30.30 in
Humidity: 73%
Wind: Southwest at 3.5 MPH (3 KT)
Dew Point: 10.4°F
Visibility: 10.00 mi


Airport Weather Forecast for KLNP

Translated METAR and TAF for KLNP
Translated METAR for KLNP (0835 UTC 31 January 2015)
found at http://aviationweather.gov/adds/metars/
 
METAR text: KLNP 310815Z AUTO 00000KT 10SM CLR M07/M11 A3030 RMK AO2
Conditions at: KLNP (WISE/LONESOME PI, VA, US) observed 0815 UTC 31 January 2015
Temperature: -7.0°C (19°F)
Dewpoint: -11.0°C (12°F) [RH = 73%]
Pressure (altimeter): 30.30 inches Hg (1026.2 mb)
Winds: calm
Visibility: 10 or more miles (16+ km)
Ceiling: at least 12,000 feet AGL
Clouds: sky clear below 12,000 feet AGL
Weather: automated observation with no human augmentation;
there may or may not be significant weather present at this time
Translated TAF for KLNP

There is no translated TAF available for this airport

Find All Airport Services Find A Hotel Find A Rental Car Find A Golf Course Find A Restaurant $100 Hamburger



FBO's on the Field
FBO Company Facility Photos Services Transportation Aviation Fuel Prices: Prices include tax
Catering Weather Repair Courtesy Rental Type 100LL JetA JetA+ MOGAS 8087
 
Lonesome Pine Airport

This FBO has not yet been rated
FS:Shell
Last Updated: Jan-14
Login to update fuel prices
SS:
Contact Lonesome Pine AirportMore FBO Information
 
Add another FBO Facility Photos Catering Weather Repair Courtesy Rental Type 100LL JetA JetA+ MOGAS 8087
Services Transportation Aviation Fuel Prices: Prices include tax


model-print
model-print
model-print
model-print